sensor_id;sensor_type;location;lat;lon;timestamp;P1;durP1;ratioP1;P2;durP2;ratioP2
47922;SDS011;33688;44.354;9.228;2023-07-24T00:00:03;3.45;;;3.03;;
47922;SDS011;33688;44.354;9.228;2023-07-24T00:02:31;3.38;;;2.65;;
47922;SDS011;33688;44.354;9.228;2023-07-24T00:04:57;2.42;;;2.22;;
47922;SDS011;33688;44.354;9.228;2023-07-24T00:07:23;2.60;;;2.40;;
47922;SDS011;33688;44.354;9.228;2023-07-24T00:09:50;2.58;;;2.38;;
47922;SDS011;33688;44.354;9.228;2023-07-24T00:12:16;2.53;;;2.13;;
47922;SDS011;33688;44.354;9.228;2023-07-24T00:14:41;3.00;;;2.70;;
47922;SDS011;33688;44.354;9.228;2023-07-24T00:17:07;3.17;;;2.88;;
47922;SDS011;33688;44.354;9.228;2023-07-24T00:19:33;3.08;;;2.78;;
47922;SDS011;33688;44.354;9.228;2023-07-24T00:21:58;2.78;;;2.50;;
47922;SDS011;33688;44.354;9.228;2023-07-24T00:24:24;3.40;;;2.70;;
47922;SDS011;33688;44.354;9.228;2023-07-24T00:26:50;2.95;;;2.38;;
47922;SDS011;33688;44.354;9.228;2023-07-24T00:29:16;3.53;;;2.95;;
47922;SDS011;33688;44.354;9.228;2023-07-24T00:31:42;2.60;;;2.38;;
47922;SDS011;33688;44.354;9.228;2023-07-24T00:34:08;3.15;;;2.75;;
47922;SDS011;33688;44.354;9.228;2023-07-24T00:36:34;3.85;;;3.22;;
47922;SDS011;33688;44.354;9.228;2023-07-24T00:38:59;2.78;;;2.58;;
47922;SDS011;33688;44.354;9.228;2023-07-24T00:41:26;2.63;;;2.42;;
47922;SDS011;33688;44.354;9.228;2023-07-24T00:43:53;3.30;;;3.00;;
47922;SDS011;33688;44.354;9.228;2023-07-24T00:46:20;2.35;;;2.10;;
47922;SDS011;33688;44.354;9.228;2023-07-24T00:48:47;3.42;;;2.80;;
47922;SDS011;33688;44.354;9.228;2023-07-24T00:51:14;3.22;;;2.85;;
47922;SDS011;33688;44.354;9.228;2023-07-24T00:53:39;3.00;;;2.70;;
47922;SDS011;33688;44.354;9.228;2023-07-24T00:56:05;3.10;;;2.58;;
47922;SDS011;33688;44.354;9.228;2023-07-24T00:58:32;3.03;;;2.72;;
47922;SDS011;33688;44.354;9.228;2023-07-24T01:03:47;3.17;;;2.88;;
47922;SDS011;33688;44.354;9.228;2023-07-24T01:06:14;3.17;;;2.80;;
47922;SDS011;33688;44.354;9.228;2023-07-24T01:08:40;2.95;;;2.40;;
47922;SDS011;33688;44.354;9.228;2023-07-24T01:11:10;2.97;;;2.50;;
47922;SDS011;33688;44.354;9.228;2023-07-24T01:13:44;2.80;;;2.53;;
47922;SDS011;33688;44.354;9.228;2023-07-24T01:16:41;3.10;;;2.72;;
47922;SDS011;33688;44.354;9.228;2023-07-24T01:19:12;3.00;;;2.70;;
47922;SDS011;33688;44.354;9.228;2023-07-24T01:27:54;3.35;;;2.55;;
47922;SDS011;33688;44.354;9.228;2023-07-24T01:30:20;3.28;;;2.78;;
47922;SDS011;33688;44.354;9.228;2023-07-24T01:32:46;2.60;;;2.40;;
47922;SDS011;33688;44.354;9.228;2023-07-24T01:35:15;3.25;;;2.65;;
47922;SDS011;33688;44.354;9.228;2023-07-24T01:37:42;3.53;;;3.22;;
47922;SDS011;33688;44.354;9.228;2023-07-24T01:40:11;3.05;;;2.53;;
47922;SDS011;33688;44.354;9.228;2023-07-24T01:42:38;3.47;;;3.00;;
47922;SDS011;33688;44.354;9.228;2023-07-24T01:45:04;3.00;;;2.70;;
47922;SDS011;33688;44.354;9.228;2023-07-24T01:47:32;3.15;;;2.85;;
47922;SDS011;33688;44.354;9.228;2023-07-24T01:49:57;2.80;;;2.58;;
47922;SDS011;33688;44.354;9.228;2023-07-24T01:52:25;2.75;;;2.40;;
47922;SDS011;33688;44.354;9.228;2023-07-24T01:54:51;2.70;;;2.50;;
47922;SDS011;33688;44.354;9.228;2023-07-24T01:57:18;2.60;;;2.40;;
47922;SDS011;33688;44.354;9.228;2023-07-24T01:59:44;3.60;;;2.97;;
47922;SDS011;33688;44.354;9.228;2023-07-24T02:02:10;2.90;;;2.60;;
47922;SDS011;33688;44.354;9.228;2023-07-24T02:04:36;3.15;;;2.70;;
47922;SDS011;33688;44.354;9.228;2023-07-24T02:07:02;2.65;;;2.45;;
47922;SDS011;33688;44.354;9.228;2023-07-24T02:09:30;2.75;;;2.55;;
47922;SDS011;33688;44.354;9.228;2023-07-24T02:11:59;3.03;;;2.67;;
47922;SDS011;33688;44.354;9.228;2023-07-24T02:14:27;3.13;;;2.83;;
47922;SDS011;33688;44.354;9.228;2023-07-24T02:16:54;3.13;;;2.83;;
47922;SDS011;33688;44.354;9.228;2023-07-24T02:19:19;3.60;;;2.80;;
47922;SDS011;33688;44.354;9.228;2023-07-24T02:21:46;2.80;;;2.58;;
47922;SDS011;33688;44.354;9.228;2023-07-24T02:24:12;2.97;;;2.67;;
47922;SDS011;33688;44.354;9.228;2023-07-24T02:26:38;3.53;;;3.20;;
47922;SDS011;33688;44.354;9.228;2023-07-24T02:29:03;3.08;;;2.78;;
47922;SDS011;33688;44.354;9.228;2023-07-24T02:31:29;3.33;;;2.63;;
47922;SDS011;33688;44.354;9.228;2023-07-24T02:33:55;2.80;;;2.47;;
47922;SDS011;33688;44.354;9.228;2023-07-24T02:36:21;2.78;;;2.53;;
47922;SDS011;33688;44.354;9.228;2023-07-24T02:38:47;3.20;;;2.90;;
47922;SDS011;33688;44.354;9.228;2023-07-24T02:41:13;3.45;;;3.15;;
47922;SDS011;33688;44.354;9.228;2023-07-24T02:43:38;3.40;;;3.10;;
47922;SDS011;33688;44.354;9.228;2023-07-24T02:46:04;3.30;;;3.00;;
47922;SDS011;33688;44.354;9.228;2023-07-24T02:48:30;3.20;;;2.90;;
47922;SDS011;33688;44.354;9.228;2023-07-24T02:50:57;2.53;;;2.33;;
47922;SDS011;33688;44.354;9.228;2023-07-24T02:53:22;3.20;;;2.90;;
47922;SDS011;33688;44.354;9.228;2023-07-24T02:55:48;2.90;;;2.70;;
47922;SDS011;33688;44.354;9.228;2023-07-24T02:58:14;3.15;;;2.85;;
47922;SDS011;33688;44.354;9.228;2023-07-24T03:00:40;3.00;;;2.70;;
47922;SDS011;33688;44.354;9.228;2023-07-24T03:03:06;2.80;;;2.60;;
47922;SDS011;33688;44.354;9.228;2023-07-24T03:05:36;3.25;;;2.95;;
47922;SDS011;33688;44.354;9.228;2023-07-24T03:08:03;3.38;;;3.00;;
47922;SDS011;33688;44.354;9.228;2023-07-24T03:10:29;3.20;;;2.70;;
47922;SDS011;33688;44.354;9.228;2023-07-24T03:15:27;3.28;;;2.97;;
47922;SDS011;33688;44.354;9.228;2023-07-24T03:17:53;3.78;;;3.00;;
47922;SDS011;33688;44.354;9.228;2023-07-24T03:20:19;3.17;;;2.88;;
47922;SDS011;33688;44.354;9.228;2023-07-24T03:22:48;2.63;;;2.40;;
47922;SDS011;33688;44.354;9.228;2023-07-24T03:25:14;3.08;;;2.78;;
47922;SDS011;33688;44.354;9.228;2023-07-24T03:27:40;2.90;;;2.60;;
47922;SDS011;33688;44.354;9.228;2023-07-24T03:30:06;3.85;;;2.85;;
47922;SDS011;33688;44.354;9.228;2023-07-24T03:32:32;3.25;;;2.95;;
47922;SDS011;33688;44.354;9.228;2023-07-24T03:34:58;4.20;;;3.33;;
47922;SDS011;33688;44.354;9.228;2023-07-24T03:39:54;3.25;;;2.95;;
47922;SDS011;33688;44.354;9.228;2023-07-24T03:42:26;3.20;;;2.90;;
47922;SDS011;33688;44.354;9.228;2023-07-24T03:44:56;3.25;;;2.95;;
47922;SDS011;33688;44.354;9.228;2023-07-24T03:47:24;3.03;;;2.65;;
47922;SDS011;33688;44.354;9.228;2023-07-24T03:49:50;3.33;;;3.00;;
47922;SDS011;33688;44.354;9.228;2023-07-24T03:54:46;2.97;;;2.70;;
47922;SDS011;33688;44.354;9.228;2023-07-24T03:57:12;3.08;;;2.60;;
47922;SDS011;33688;44.354;9.228;2023-07-24T03:59:38;2.60;;;2.40;;
47922;SDS011;33688;44.354;9.228;2023-07-24T04:02:04;3.13;;;2.80;;
47922;SDS011;33688;44.354;9.228;2023-07-24T04:04:30;3.80;;;3.13;;
47922;SDS011;33688;44.354;9.228;2023-07-24T04:06:56;3.33;;;2.85;;
47922;SDS011;33688;44.354;9.228;2023-07-24T04:09:22;2.97;;;2.58;;
47922;SDS011;33688;44.354;9.228;2023-07-24T04:11:48;3.05;;;2.75;;
47922;SDS011;33688;44.354;9.228;2023-07-24T04:14:14;3.10;;;2.78;;
47922;SDS011;33688;44.354;9.228;2023-07-24T04:16:39;3.13;;;2.83;;
47922;SDS011;33688;44.354;9.228;2023-07-24T04:19:05;3.92;;;3.17;;
47922;SDS011;33688;44.354;9.228;2023-07-24T04:21:33;3.90;;;2.85;;
47922;SDS011;33688;44.354;9.228;2023-07-24T04:23:59;2.85;;;2.60;;
47922;SDS011;33688;44.354;9.228;2023-07-24T04:26:25;2.88;;;2.65;;
47922;SDS011;33688;44.354;9.228;2023-07-24T04:28:50;3.63;;;2.95;;
47922;SDS011;33688;44.354;9.228;2023-07-24T04:31:16;3.03;;;2.60;;
47922;SDS011;33688;44.354;9.228;2023-07-24T04:33:42;3.28;;;2.97;;
47922;SDS011;33688;44.354;9.228;2023-07-24T04:36:08;3.55;;;2.85;;
47922;SDS011;33688;44.354;9.228;2023-07-24T04:38:33;5.03;;;2.88;;
47922;SDS011;33688;44.354;9.228;2023-07-24T04:41:00;3.28;;;2.88;;
47922;SDS011;33688;44.354;9.228;2023-07-24T04:43:27;2.55;;;2.35;;
47922;SDS011;33688;44.354;9.228;2023-07-24T04:45:54;2.97;;;2.67;;
47922;SDS011;33688;44.354;9.228;2023-07-24T04:48:19;3.35;;;3.03;;
47922;SDS011;33688;44.354;9.228;2023-07-24T04:50:45;2.88;;;2.60;;
47922;SDS011;33688;44.354;9.228;2023-07-24T04:53:11;3.28;;;2.65;;
47922;SDS011;33688;44.354;9.228;2023-07-24T04:55:37;3.30;;;3.00;;
47922;SDS011;33688;44.354;9.228;2023-07-24T04:58:03;3.40;;;3.10;;
47922;SDS011;33688;44.354;9.228;2023-07-24T05:00:29;2.65;;;2.40;;
47922;SDS011;33688;44.354;9.228;2023-07-24T05:02:56;3.13;;;2.80;;
47922;SDS011;33688;44.354;9.228;2023-07-24T05:05:21;3.03;;;2.70;;
47922;SDS011;33688;44.354;9.228;2023-07-24T05:07:47;3.47;;;2.88;;
47922;SDS011;33688;44.354;9.228;2023-07-24T05:10:13;3.20;;;2.75;;
47922;SDS011;33688;44.354;9.228;2023-07-24T05:12:42;3.80;;;3.15;;
47922;SDS011;33688;44.354;9.228;2023-07-24T05:15:07;3.83;;;2.90;;
47922;SDS011;33688;44.354;9.228;2023-07-24T05:17:34;3.72;;;3.00;;
47922;SDS011;33688;44.354;9.228;2023-07-24T05:19:59;2.75;;;2.55;;
47922;SDS011;33688;44.354;9.228;2023-07-24T05:22:25;2.92;;;2.65;;
47922;SDS011;33688;44.354;9.228;2023-07-24T05:24:51;2.70;;;2.50;;
47922;SDS011;33688;44.354;9.228;2023-07-24T05:27:19;2.92;;;2.67;;
47922;SDS011;33688;44.354;9.228;2023-07-24T05:29:44;3.20;;;2.83;;
47922;SDS011;33688;44.354;9.228;2023-07-24T05:32:12;2.85;;;2.55;;
47922;SDS011;33688;44.354;9.228;2023-07-24T05:34:38;3.35;;;2.95;;
47922;SDS011;33688;44.354;9.228;2023-07-24T05:37:04;2.75;;;2.53;;
47922;SDS011;33688;44.354;9.228;2023-07-24T05:39:31;3.83;;;2.88;;
47922;SDS011;33688;44.354;9.228;2023-07-24T05:41:57;2.92;;;2.70;;
47922;SDS011;33688;44.354;9.228;2023-07-24T05:44:23;2.88;;;2.67;;
47922;SDS011;33688;44.354;9.228;2023-07-24T05:46:48;2.88;;;2.55;;
47922;SDS011;33688;44.354;9.228;2023-07-24T05:49:15;2.78;;;2.40;;
47922;SDS011;33688;44.354;9.228;2023-07-24T05:51:42;2.50;;;2.22;;
47922;SDS011;33688;44.354;9.228;2023-07-24T05:54:08;3.00;;;2.28;;
47922;SDS011;33688;44.354;9.228;2023-07-24T05:56:35;2.70;;;2.50;;
47922;SDS011;33688;44.354;9.228;2023-07-24T05:59:03;2.70;;;2.50;;
47922;SDS011;33688;44.354;9.228;2023-07-24T06:01:32;2.83;;;2.53;;
47922;SDS011;33688;44.354;9.228;2023-07-24T06:03:58;3.72;;;2.65;;
47922;SDS011;33688;44.354;9.228;2023-07-24T06:06:24;4.05;;;2.80;;
47922;SDS011;33688;44.354;9.228;2023-07-24T06:08:50;2.83;;;2.63;;
47922;SDS011;33688;44.354;9.228;2023-07-24T06:11:16;2.88;;;2.47;;
47922;SDS011;33688;44.354;9.228;2023-07-24T06:13:42;3.05;;;2.60;;
47922;SDS011;33688;44.354;9.228;2023-07-24T06:16:08;3.15;;;2.85;;
47922;SDS011;33688;44.354;9.228;2023-07-24T06:18:34;3.00;;;2.70;;
47922;SDS011;33688;44.354;9.228;2023-07-24T06:21:01;2.58;;;2.20;;
47922;SDS011;33688;44.354;9.228;2023-07-24T06:23:27;2.95;;;2.65;;
47922;SDS011;33688;44.354;9.228;2023-07-24T06:25:53;2.60;;;2.40;;
47922;SDS011;33688;44.354;9.228;2023-07-24T06:28:19;6.00;;;4.25;;
47922;SDS011;33688;44.354;9.228;2023-07-24T06:30:45;7.47;;;5.95;;
47922;SDS011;33688;44.354;9.228;2023-07-24T06:33:11;15.60;;;6.35;;
47922;SDS011;33688;44.354;9.228;2023-07-24T06:35:37;11.57;;;8.18;;
47922;SDS011;33688;44.354;9.228;2023-07-24T06:38:03;14.57;;;8.13;;
47922;SDS011;33688;44.354;9.228;2023-07-24T06:40:28;13.15;;;7.63;;
47922;SDS011;33688;44.354;9.228;2023-07-24T06:42:55;8.82;;;5.55;;
47922;SDS011;33688;44.354;9.228;2023-07-24T06:45:21;9.50;;;5.53;;
47922;SDS011;33688;44.354;9.228;2023-07-24T06:50:36;8.07;;;5.72;;
47922;SDS011;33688;44.354;9.228;2023-07-24T06:53:02;8.73;;;5.55;;
47922;SDS011;33688;44.354;9.228;2023-07-24T06:55:31;9.70;;;6.40;;
47922;SDS011;33688;44.354;9.228;2023-07-24T06:57:56;9.73;;;6.63;;
47922;SDS011;33688;44.354;9.228;2023-07-24T07:00:24;8.23;;;6.25;;
47922;SDS011;33688;44.354;9.228;2023-07-24T07:02:50;10.98;;;6.60;;
47922;SDS011;33688;44.354;9.228;2023-07-24T07:05:16;9.15;;;6.40;;
47922;SDS011;33688;44.354;9.228;2023-07-24T07:07:42;8.93;;;6.22;;
47922;SDS011;33688;44.354;9.228;2023-07-24T07:10:08;9.90;;;6.80;;
47922;SDS011;33688;44.354;9.228;2023-07-24T07:12:34;9.45;;;6.32;;
47922;SDS011;33688;44.354;9.228;2023-07-24T07:15:01;7.43;;;6.18;;
47922;SDS011;33688;44.354;9.228;2023-07-24T07:17:26;9.48;;;5.97;;
47922;SDS011;33688;44.354;9.228;2023-07-24T07:19:52;7.75;;;5.63;;
47922;SDS011;33688;44.354;9.228;2023-07-24T07:22:19;11.45;;;7.18;;
47922;SDS011;33688;44.354;9.228;2023-07-24T07:24:45;10.50;;;6.07;;
47922;SDS011;33688;44.354;9.228;2023-07-24T07:27:11;10.77;;;6.05;;
47922;SDS011;33688;44.354;9.228;2023-07-24T07:29:38;7.00;;;5.90;;
47922;SDS011;33688;44.354;9.228;2023-07-24T07:32:04;10.55;;;6.40;;
47922;SDS011;33688;44.354;9.228;2023-07-24T07:34:30;8.07;;;5.90;;
47922;SDS011;33688;44.354;9.228;2023-07-24T07:36:56;9.05;;;5.75;;
47922;SDS011;33688;44.354;9.228;2023-07-24T07:39:22;7.97;;;6.10;;
47922;SDS011;33688;44.354;9.228;2023-07-24T07:41:50;9.80;;;6.50;;
47922;SDS011;33688;44.354;9.228;2023-07-24T07:44:16;8.73;;;6.32;;
47922;SDS011;33688;44.354;9.228;2023-07-24T07:49:26;10.10;;;6.03;;
47922;SDS011;33688;44.354;9.228;2023-07-24T07:54:39;8.00;;;6.03;;
47922;SDS011;33688;44.354;9.228;2023-07-24T07:57:07;8.07;;;5.63;;
47922;SDS011;33688;44.354;9.228;2023-07-24T07:59:32;7.78;;;6.07;;
47922;SDS011;33688;44.354;9.228;2023-07-24T08:04:27;8.50;;;6.22;;
47922;SDS011;33688;44.354;9.228;2023-07-24T08:06:53;6.57;;;5.50;;
47922;SDS011;33688;44.354;9.228;2023-07-24T08:09:20;7.40;;;5.30;;
47922;SDS011;33688;44.354;9.228;2023-07-24T08:11:47;7.00;;;6.18;;
47922;SDS011;33688;44.354;9.228;2023-07-24T08:14:13;9.75;;;6.32;;
47922;SDS011;33688;44.354;9.228;2023-07-24T08:16:38;10.23;;;6.22;;
47922;SDS011;33688;44.354;9.228;2023-07-24T08:19:04;7.68;;;5.70;;
47922;SDS011;33688;44.354;9.228;2023-07-24T08:21:30;7.10;;;5.80;;
47922;SDS011;33688;44.354;9.228;2023-07-24T08:23:56;7.78;;;5.32;;
47922;SDS011;33688;44.354;9.228;2023-07-24T08:26:23;9.07;;;5.72;;
47922;SDS011;33688;44.354;9.228;2023-07-24T08:28:52;12.02;;;4.82;;
47922;SDS011;33688;44.354;9.228;2023-07-24T08:31:19;7.10;;;5.35;;
47922;SDS011;33688;44.354;9.228;2023-07-24T08:33:46;8.77;;;5.85;;
47922;SDS011;33688;44.354;9.228;2023-07-24T08:36:13;11.23;;;5.43;;
47922;SDS011;33688;44.354;9.228;2023-07-24T08:38:39;7.55;;;5.72;;
47922;SDS011;33688;44.354;9.228;2023-07-24T08:41:12;7.35;;;4.70;;
47922;SDS011;33688;44.354;9.228;2023-07-24T08:43:41;8.00;;;4.65;;
47922;SDS011;33688;44.354;9.228;2023-07-24T08:46:08;7.18;;;5.40;;
47922;SDS011;33688;44.354;9.228;2023-07-24T08:48:37;6.68;;;5.45;;
47922;SDS011;33688;44.354;9.228;2023-07-24T08:51:09;6.78;;;5.45;;
47922;SDS011;33688;44.354;9.228;2023-07-24T08:53:38;6.70;;;4.95;;
47922;SDS011;33688;44.354;9.228;2023-07-24T08:56:07;7.35;;;5.05;;
47922;SDS011;33688;44.354;9.228;2023-07-24T08:58:35;8.85;;;5.43;;
47922;SDS011;33688;44.354;9.228;2023-07-24T09:01:03;6.00;;;4.90;;
47922;SDS011;33688;44.354;9.228;2023-07-24T09:03:32;7.13;;;5.50;;
47922;SDS011;33688;44.354;9.228;2023-07-24T09:05:59;6.35;;;4.82;;
47922;SDS011;33688;44.354;9.228;2023-07-24T09:08:32;7.45;;;4.63;;
47922;SDS011;33688;44.354;9.228;2023-07-24T09:11:00;8.48;;;5.85;;
47922;SDS011;33688;44.354;9.228;2023-07-24T09:13:29;8.45;;;5.10;;
47922;SDS011;33688;44.354;9.228;2023-07-24T09:15:56;7.35;;;5.32;;
47922;SDS011;33688;44.354;9.228;2023-07-24T09:18:23;12.10;;;4.88;;
47922;SDS011;33688;44.354;9.228;2023-07-24T09:20:50;6.30;;;4.78;;
47922;SDS011;33688;44.354;9.228;2023-07-24T09:23:17;6.95;;;4.60;;
47922;SDS011;33688;44.354;9.228;2023-07-24T09:25:55;8.15;;;5.10;;
47922;SDS011;33688;44.354;9.228;2023-07-24T09:28:21;7.43;;;5.20;;
47922;SDS011;33688;44.354;9.228;2023-07-24T09:30:54;6.60;;;4.53;;
47922;SDS011;33688;44.354;9.228;2023-07-24T09:33:22;8.45;;;5.38;;
47922;SDS011;33688;44.354;9.228;2023-07-24T09:35:59;4.80;;;3.97;;
47922;SDS011;33688;44.354;9.228;2023-07-24T09:38:28;6.97;;;4.95;;
47922;SDS011;33688;44.354;9.228;2023-07-24T09:40:55;9.45;;;5.35;;
47922;SDS011;33688;44.354;9.228;2023-07-24T09:43:22;6.00;;;4.28;;
47922;SDS011;33688;44.354;9.228;2023-07-24T09:45:52;6.00;;;4.32;;
47922;SDS011;33688;44.354;9.228;2023-07-24T09:48:21;7.05;;;4.57;;
47922;SDS011;33688;44.354;9.228;2023-07-24T09:53:43;7.95;;;4.63;;
47922;SDS011;33688;44.354;9.228;2023-07-24T09:56:19;5.30;;;4.43;;
47922;SDS011;33688;44.354;9.228;2023-07-24T09:58:47;5.75;;;4.18;;
47922;SDS011;33688;44.354;9.228;2023-07-24T10:01:14;7.25;;;4.70;;
47922;SDS011;33688;44.354;9.228;2023-07-24T10:03:48;8.43;;;4.57;;
47922;SDS011;33688;44.354;9.228;2023-07-24T10:06:15;6.70;;;4.07;;
47922;SDS011;33688;44.354;9.228;2023-07-24T10:08:44;9.55;;;4.65;;
47922;SDS011;33688;44.354;9.228;2023-07-24T10:11:11;6.53;;;4.35;;
47922;SDS011;33688;44.354;9.228;2023-07-24T10:16:33;5.90;;;4.15;;
47922;SDS011;33688;44.354;9.228;2023-07-24T10:18:59;5.82;;;4.88;;
47922;SDS011;33688;44.354;9.228;2023-07-24T10:21:28;4.90;;;4.40;;
47922;SDS011;33688;44.354;9.228;2023-07-24T10:23:54;6.95;;;4.75;;
47922;SDS011;33688;44.354;9.228;2023-07-24T10:26:26;9.35;;;4.20;;
47922;SDS011;33688;44.354;9.228;2023-07-24T10:28:52;6.47;;;3.65;;
47922;SDS011;33688;44.354;9.228;2023-07-24T10:31:20;7.72;;;4.80;;
47922;SDS011;33688;44.354;9.228;2023-07-24T10:33:49;5.88;;;4.00;;
47922;SDS011;33688;44.354;9.228;2023-07-24T10:36:19;6.10;;;4.25;;
47922;SDS011;33688;44.354;9.228;2023-07-24T10:38:54;8.27;;;3.45;;
47922;SDS011;33688;44.354;9.228;2023-07-24T10:41:22;8.98;;;4.80;;
47922;SDS011;33688;44.354;9.228;2023-07-24T10:44:02;6.22;;;4.22;;
47922;SDS011;33688;44.354;9.228;2023-07-24T10:46:40;6.05;;;4.28;;
47922;SDS011;33688;44.354;9.228;2023-07-24T10:49:09;6.22;;;4.22;;
47922;SDS011;33688;44.354;9.228;2023-07-24T10:51:36;6.95;;;4.05;;
47922;SDS011;33688;44.354;9.228;2023-07-24T10:54:05;6.72;;;4.15;;
47922;SDS011;33688;44.354;9.228;2023-07-24T10:56:32;5.53;;;4.28;;
47922;SDS011;33688;44.354;9.228;2023-07-24T10:59:02;5.22;;;3.97;;
47922;SDS011;33688;44.354;9.228;2023-07-24T11:01:31;5.55;;;4.18;;
47922;SDS011;33688;44.354;9.228;2023-07-24T11:06:44;4.50;;;4.07;;
47922;SDS011;33688;44.354;9.228;2023-07-24T11:09:10;6.60;;;4.25;;
47922;SDS011;33688;44.354;9.228;2023-07-24T11:11:37;5.93;;;4.55;;
47922;SDS011;33688;44.354;9.228;2023-07-24T11:14:02;6.68;;;4.00;;
47922;SDS011;33688;44.354;9.228;2023-07-24T11:16:29;7.82;;;5.05;;
47922;SDS011;33688;44.354;9.228;2023-07-24T11:18:56;6.40;;;4.15;;
47922;SDS011;33688;44.354;9.228;2023-07-24T11:21:22;6.88;;;4.57;;
47922;SDS011;33688;44.354;9.228;2023-07-24T11:23:53;7.60;;;4.65;;
47922;SDS011;33688;44.354;9.228;2023-07-24T11:26:21;7.68;;;4.45;;
47922;SDS011;33688;44.354;9.228;2023-07-24T11:28:50;8.73;;;3.95;;
47922;SDS011;33688;44.354;9.228;2023-07-24T11:31:17;5.80;;;4.40;;
47922;SDS011;33688;44.354;9.228;2023-07-24T11:33:46;8.27;;;4.32;;
47922;SDS011;33688;44.354;9.228;2023-07-24T11:36:14;6.03;;;3.88;;
47922;SDS011;33688;44.354;9.228;2023-07-24T11:38:40;5.82;;;3.75;;
47922;SDS011;33688;44.354;9.228;2023-07-24T11:41:08;5.93;;;3.90;;
47922;SDS011;33688;44.354;9.228;2023-07-24T11:43:36;7.93;;;4.47;;
47922;SDS011;33688;44.354;9.228;2023-07-24T11:46:26;8.82;;;4.18;;
47922;SDS011;33688;44.354;9.228;2023-07-24T11:48:53;7.28;;;3.72;;
47922;SDS011;33688;44.354;9.228;2023-07-24T11:51:23;6.25;;;4.25;;
47922;SDS011;33688;44.354;9.228;2023-07-24T11:53:52;5.88;;;4.25;;
47922;SDS011;33688;44.354;9.228;2023-07-24T11:56:19;10.75;;;4.65;;
47922;SDS011;33688;44.354;9.228;2023-07-24T11:58:46;8.60;;;4.45;;
47922;SDS011;33688;44.354;9.228;2023-07-24T12:01:13;5.90;;;4.00;;
47922;SDS011;33688;44.354;9.228;2023-07-24T12:03:39;8.95;;;4.18;;
47922;SDS011;33688;44.354;9.228;2023-07-24T12:06:05;7.10;;;4.47;;
47922;SDS011;33688;44.354;9.228;2023-07-24T12:08:42;6.53;;;4.55;;
47922;SDS011;33688;44.354;9.228;2023-07-24T12:11:16;6.80;;;3.80;;
47922;SDS011;33688;44.354;9.228;2023-07-24T12:13:45;10.68;;;4.97;;
47922;SDS011;33688;44.354;9.228;2023-07-24T12:16:12;9.15;;;4.47;;
47922;SDS011;33688;44.354;9.228;2023-07-24T12:18:38;6.47;;;4.68;;
47922;SDS011;33688;44.354;9.228;2023-07-24T12:21:04;6.68;;;4.30;;
47922;SDS011;33688;44.354;9.228;2023-07-24T12:23:29;9.90;;;4.53;;
47922;SDS011;33688;44.354;9.228;2023-07-24T12:25:55;11.07;;;5.03;;
47922;SDS011;33688;44.354;9.228;2023-07-24T12:28:21;7.57;;;4.35;;
47922;SDS011;33688;44.354;9.228;2023-07-24T12:30:47;6.80;;;3.67;;
47922;SDS011;33688;44.354;9.228;2023-07-24T12:33:14;7.68;;;4.20;;
47922;SDS011;33688;44.354;9.228;2023-07-24T12:35:39;7.07;;;3.63;;
47922;SDS011;33688;44.354;9.228;2023-07-24T12:38:05;10.52;;;5.30;;
47922;SDS011;33688;44.354;9.228;2023-07-24T12:40:31;7.00;;;4.07;;
47922;SDS011;33688;44.354;9.228;2023-07-24T12:42:57;6.95;;;4.03;;
47922;SDS011;33688;44.354;9.228;2023-07-24T12:45:23;9.63;;;4.38;;
47922;SDS011;33688;44.354;9.228;2023-07-24T12:47:49;6.80;;;3.90;;
47922;SDS011;33688;44.354;9.228;2023-07-24T12:50:15;9.63;;;4.78;;
47922;SDS011;33688;44.354;9.228;2023-07-24T12:52:41;7.05;;;3.80;;
47922;SDS011;33688;44.354;9.228;2023-07-24T12:55:08;7.32;;;4.00;;
47922;SDS011;33688;44.354;9.228;2023-07-24T12:57:35;7.72;;;3.75;;
47922;SDS011;33688;44.354;9.228;2023-07-24T13:00:01;6.88;;;3.38;;
47922;SDS011;33688;44.354;9.228;2023-07-24T13:02:30;8.50;;;4.15;;
47922;SDS011;33688;44.354;9.228;2023-07-24T13:04:57;7.15;;;4.70;;
47922;SDS011;33688;44.354;9.228;2023-07-24T13:07:23;6.28;;;3.85;;
47922;SDS011;33688;44.354;9.228;2023-07-24T13:09:48;6.35;;;3.83;;
47922;SDS011;33688;44.354;9.228;2023-07-24T13:12:17;6.72;;;4.15;;
47922;SDS011;33688;44.354;9.228;2023-07-24T13:14:43;6.47;;;4.03;;
47922;SDS011;33688;44.354;9.228;2023-07-24T13:17:09;7.97;;;4.32;;
47922;SDS011;33688;44.354;9.228;2023-07-24T13:19:35;7.78;;;4.18;;
47922;SDS011;33688;44.354;9.228;2023-07-24T13:22:01;8.52;;;3.63;;
47922;SDS011;33688;44.354;9.228;2023-07-24T13:24:28;6.47;;;4.15;;
47922;SDS011;33688;44.354;9.228;2023-07-24T13:26:56;9.75;;;4.15;;
47922;SDS011;33688;44.354;9.228;2023-07-24T13:29:22;7.90;;;4.55;;
47922;SDS011;33688;44.354;9.228;2023-07-24T13:31:49;8.82;;;4.93;;
47922;SDS011;33688;44.354;9.228;2023-07-24T13:34:19;11.23;;;4.05;;
47922;SDS011;33688;44.354;9.228;2023-07-24T13:36:46;7.82;;;3.80;;
47922;SDS011;33688;44.354;9.228;2023-07-24T13:39:12;9.82;;;4.38;;
47922;SDS011;33688;44.354;9.228;2023-07-24T13:41:40;7.68;;;3.72;;
47922;SDS011;33688;44.354;9.228;2023-07-24T13:44:06;7.35;;;3.90;;
47922;SDS011;33688;44.354;9.228;2023-07-24T13:46:33;9.23;;;3.92;;
47922;SDS011;33688;44.354;9.228;2023-07-24T13:48:59;6.75;;;3.67;;
47922;SDS011;33688;44.354;9.228;2023-07-24T13:51:26;8.40;;;4.07;;
47922;SDS011;33688;44.354;9.228;2023-07-24T13:53:51;9.15;;;4.32;;
47922;SDS011;33688;44.354;9.228;2023-07-24T13:56:19;10.50;;;4.60;;
47922;SDS011;33688;44.354;9.228;2023-07-24T13:58:45;7.47;;;3.55;;
47922;SDS011;33688;44.354;9.228;2023-07-24T14:01:11;10.50;;;4.32;;
47922;SDS011;33688;44.354;9.228;2023-07-24T14:03:37;8.30;;;4.35;;
47922;SDS011;33688;44.354;9.228;2023-07-24T14:06:03;12.07;;;4.70;;
47922;SDS011;33688;44.354;9.228;2023-07-24T14:08:29;7.82;;;4.45;;
47922;SDS011;33688;44.354;9.228;2023-07-24T14:10:55;13.00;;;4.82;;
47922;SDS011;33688;44.354;9.228;2023-07-24T14:13:21;9.45;;;4.53;;
47922;SDS011;33688;44.354;9.228;2023-07-24T14:15:48;8.52;;;4.00;;
47922;SDS011;33688;44.354;9.228;2023-07-24T14:18:14;8.38;;;4.47;;
47922;SDS011;33688;44.354;9.228;2023-07-24T14:20:42;11.98;;;5.05;;
47922;SDS011;33688;44.354;9.228;2023-07-24T14:23:08;14.18;;;5.38;;
47922;SDS011;33688;44.354;9.228;2023-07-24T14:25:35;7.75;;;4.03;;
47922;SDS011;33688;44.354;9.228;2023-07-24T14:30:30;7.38;;;4.45;;
47922;SDS011;33688;44.354;9.228;2023-07-24T14:32:55;12.80;;;4.70;;
47922;SDS011;33688;44.354;9.228;2023-07-24T14:35:21;11.88;;;4.15;;
47922;SDS011;33688;44.354;9.228;2023-07-24T14:37:47;13.45;;;5.30;;
47922;SDS011;33688;44.354;9.228;2023-07-24T14:40:13;11.32;;;4.95;;
47922;SDS011;33688;44.354;9.228;2023-07-24T14:42:39;14.15;;;4.90;;
47922;SDS011;33688;44.354;9.228;2023-07-24T14:47:35;11.82;;;4.72;;
47922;SDS011;33688;44.354;9.228;2023-07-24T14:50:01;9.07;;;4.25;;
47922;SDS011;33688;44.354;9.228;2023-07-24T14:52:28;10.25;;;3.95;;
47922;SDS011;33688;44.354;9.228;2023-07-24T14:54:53;15.90;;;4.90;;
47922;SDS011;33688;44.354;9.228;2023-07-24T15:00:05;9.63;;;4.25;;
47922;SDS011;33688;44.354;9.228;2023-07-24T15:05:01;7.95;;;4.28;;
47922;SDS011;33688;44.354;9.228;2023-07-24T15:07:27;8.98;;;4.25;;
47922;SDS011;33688;44.354;9.228;2023-07-24T15:09:53;9.63;;;3.83;;
47922;SDS011;33688;44.354;9.228;2023-07-24T15:12:20;9.82;;;4.35;;
47922;SDS011;33688;44.354;9.228;2023-07-24T15:14:46;12.55;;;4.47;;
47922;SDS011;33688;44.354;9.228;2023-07-24T15:17:12;15.57;;;6.22;;
47922;SDS011;33688;44.354;9.228;2023-07-24T15:19:39;11.95;;;4.70;;
47922;SDS011;33688;44.354;9.228;2023-07-24T15:22:05;12.27;;;4.70;;
47922;SDS011;33688;44.354;9.228;2023-07-24T15:24:31;12.00;;;5.30;;
47922;SDS011;33688;44.354;9.228;2023-07-24T15:26:57;8.90;;;4.60;;
47922;SDS011;33688;44.354;9.228;2023-07-24T15:29:23;8.25;;;4.50;;